Record high temperature 39.4°C Record low temperature -14.6°C Record high gust 68.5 km/h Record high average 47.2 km/h Record daily rain 55.3 mm Record low windchill -17.5°C Record high barometer 1045.0 hPa Record low barometer 970.0 hPa
Daily high pressure 1021.0 hPa Daily low pressure 1017.0 hPa Daily low windchill 10.1°C Daily high heat index 12.9°C Daily high gust speed 23.3 kmh SSW Daily high average speed 13.0 kmh WSW

This page is updated from recent data collected by a WMR200 weather station Use the Reload or Refresh facility on your browser to retrieve the latest data.

Status report of weather station: Bienvenue sur la Station Météo de Godarville



Weather report/warning/Metars

Alexandroupoli Airport , Greece (LGAL) 40-51N 025-55E 3M
Sep 22, 2018 - 03:20 PM EDT / 2018.09.22 1920 UTC
Wind: Variable at 2 MPH (2 KT):0
Visibility: greater than 7 mile(s):0
Temperature: 66 F (19 C)
Dew Point: 57 F (14 C)
Relative Humidity: 72%
Pressure (altimeter): 30.00 in. Hg (1016 hPa)
ob: LGAL 221920Z VRB02KT CAVOK 19/14 Q1016
cycle: 19

Charleroi / Gosselies, Belgium (EBCI) 50-28N 004-27E 192M
Sep 22, 2018 - 03:50 PM EDT / 2018.09.22 1950 UTC
Wind: from the SSE (160 degrees) at 3 MPH (3 KT) (direction variable):0
Visibility: 2 mile(s):0
Sky conditions: mostly cloudy
Weather: light rain
Temperature: 50 F (10 C)
Dew Point: 50 F (10 C)
Relative Humidity: 100%
Pressure (altimeter): 30.06 in. Hg (1018 hPa)
ob: EBCI 221950Z 16003KT 140V200 4500 -RA FEW003 SCT006 BKN012 10/10 Q1018 TEMPO BKN006
cycle: 20

Bruxelles National, Belgium (EBBR) 50-54N 004-32E 58M
Sep 22, 2018 - 03:50 PM EDT / 2018.09.22 1950 UTC
Wind: from the SE (130 degrees) at 3 MPH (3 KT) (direction variable):0
Visibility: 3 mile(s):0
Sky conditions: mostly cloudy
Weather: light rain
Temperature: 51 F (11 C)
Dew Point: 50 F (10 C)
Relative Humidity: 93%
Pressure (altimeter): 30.06 in. Hg (1018 hPa)
ob: EBBR 221950Z 13003KT 110V180 6000 -RA FEW006 BKN013 11/10 Q1018 TEMPO 4000 -RADZ BKN006
cycle: 20

Koksijde, Belgium (EBFN) 51-05N 002-39E 9M
Sep 20, 2018 - 10:25 AM EDT / 2018.09.20 1425 UTC
Wind: from the SSW (200 degrees) at 12 MPH (10 KT):0
Visibility: greater than 7 mile(s):0
Sky conditions: mostly cloudy
Temperature: 71 F (22 C)
Dew Point: 57 F (14 C)
Relative Humidity: 60%
Pressure (altimeter): 29.91 in. Hg (1013 hPa)
ob: EBFN 201425Z 20010KT 9999 FEW020 SCT035 BKN220 22/14 Q1013 BLU BLU
cycle: 14

Poznan, Poland (EPPO) 52-25N 016-50E 92M
Sep 22, 2018 - 04:00 PM EDT / 2018.09.22 2000 UTC
Wind: from the SW (220 degrees) at 7 MPH (6 KT):0
Visibility: greater than 7 mile(s):0
Temperature: 53 F (12 C)
Dew Point: 44 F (7 C)
Relative Humidity: 71%
Pressure (altimeter): 30.00 in. Hg (1016 hPa)
ob: EPPO 222000Z 22006KT CAVOK 12/07 Q1016 
cycle: 20



Coucher du Soleil:
19:41:23

Lever de Lune:
19:05:02 22/09/18

Coucher de Lune:
04:08:08 22/09/18

Premier Quartier 16 septembre 2018
Pleine Lune 25 septembre 2018
Dernier Quartier 2 octobre 2018
Nouvelle Lune 9 octobre 2018
Âge de lune : 12 jours,13 heures,38 minutes,95%
Les heures du jour possible étaient aujourd’hui 12:13